Airway Heights, WA (99001)

8:54 PM PDT on April 28, 2017 (GMT -0700)
Craig Rd / White Rd | | Change Station

Elev 2405 ft 47.58 °N, 117.62 °W | Updated 14 seconds ago

Mostly Cloudy
Mostly Cloudy
52.3 °F
Feels Like 52.3 °F
N
7.4
Wind Variable Wind from South
Gusts 7.4 mph

Today
High -- | Low -- °F
--% Chance of Precip.
Yesterday
High -- | Low -- °F
Precip. -- in
Pressure 30.18 in
Visibility 10.0 miles
Clouds Few 4000 ft
Mostly Cloudy 8000 ft
Mostly Cloudy 20000 ft
Dew Point 35 °F
Humidity 51%
Rainfall 0.00 in
Snow Depth Not available.
5:37 AM 7:58 PM
Waxing Crescent, 10% visible
METAR KGEG 290253Z 22008KT 10SM FEW040 BKN080 BKN200 12/00 A3015 RMK AO2 SLP218 CB DSNT N E SE VCSH NE SE 60000 T01220000 53004
Pressure 30.18 in
Visibility 10.0 miles
Clouds Few 4000 ft
Mostly Cloudy 8000 ft
Mostly Cloudy 20000 ft
Dew Point 35 °F
Humidity 51%
Rainfall 0.00 in
Snow Depth Not available.
5:37 AM 7:58 PM
Waxing Crescent, 10% visible
METAR KGEG 290253Z 22008KT 10SM FEW040 BKN080 BKN200 12/00 A3015 RMK AO2 SLP218 CB DSNT N E SE VCSH NE SE 60000 T01220000 53004

Get Severe Weather Alerts

Thanks for signing up!

Be on the lookout for a verification email in your inbox.

You'll start receiving the daily forecast at 8 AM.

×

10-Day Weather Forecast

Almanac

Astronomy

Apr. 28, 2017 Rise Set
Actual Time
Civil Twilight
Nautical Twilight
Astronomical Twilight
Moon
Length of Visible Light
Length of Day
Tomorrow will be .
, % of the Moon is Illuminated

Today's Extremes

State Highs State Lows

Community

WunderPhotos

WunderBlog® & News

Nearby

Air Quality

  Air Quality AQ Index Pollutant
Not available.

Snow Depth

Station Depth Elevation

Earthquake Activity

City Distance Mag. Time & Date
Minimum magnitude displayed is 2.5.

Coastal Water Temperatures

Place Temperature

Stations

Nearby Weather Stations

Station Location Temp. Windchill Dew Point Humidity Wind Precip. Elev Updated Type
                   

Watches & Warnings

There are currently no watches in effect.